• Join FlightAware (Why Join?)
  • Login
  • US Flag 
02:49PM EDT


 

Airport Tracker/Info


-or-


 

Live Flight TrackerFlight Track Log ✈ WIG1043 ✈ 09-Apr-2014 ✈ KBGR - KMHT

Flight Track Log - Related Links

Times and Time Zones

All times are in EDT time to prevent confusion due to time zone crossing. See the WIG1043 flight status page for this flight to view local times or setup timezone preferences in your user account.

Time Position Orientation Groundspeed Altitude Reporting Facility
EDT Latitude Longitude Course Direction KTS MPH feet Rate Location/Type
07:35PM 44.7969 -68.9100 230° Southwest 133 153 6,000  Level Boston Center
07:36PM 44.7628 -68.9683 230° Southwest 179 206 6,000  Level Boston Center
07:37PM 44.7219 -69.0272 226° Southwest 202 232 6,000  Level Boston Center
07:38PM 44.6797 -69.0847 224° Southwest 204 235 6,000  Level Boston Center
07:39PM 44.6383 -69.1428 225° Southwest 205 236 6,100  Climbing Boston Center
07:41PM 44.5467 -69.2706 225° Southwest 208 239 6,000  Descending Boston Center
07:42PM 44.5061 -69.3292 226° Southwest 208 239 6,100  Climbing Boston Center
07:43PM 44.4614 -69.3867 223° Southwest 211 243 6,100 -60 Level Boston Center
07:44PM 44.4208 -69.4467 227° Southwest 211 243 6,000 -60 Descending Boston Center
07:45PM 44.3792 -69.5072 226° Southwest 212 244 6,000 -60 Level Boston Center
07:46PM 44.3361 -69.5650 224° Southwest 212 244 5,900  Descending Boston Center
07:47PM 44.2925 -69.6208 223° Southwest 212 244 6,000  Climbing Boston Center
07:48PM 44.2483 -69.6836 226° Southwest 214 246 5,900 -60 Descending Boston Center
07:50PM 44.1622 -69.8044 224° Southwest 212 244 5,900  Level Boston Center
07:51PM 44.1189 -69.8594 222° Southwest 213 245 6,000  Climbing Boston Center
07:52PM 44.0764 -69.9192 225° Southwest 213 245 6,000 -60 Level Boston Center
07:53PM 44.0322 -69.9811 225° Southwest 212 244 5,900  Descending Boston Center
07:54PM 43.9900 -70.0367 223° Southwest 212 244 6,000  Climbing Boston Center
07:55PM 43.9467 -70.0931 223° Southwest 212 244 6,000  Level Boston Center
07:56PM 43.9069 -70.1511 226° Southwest 211 243 6,000  Level Boston Center
07:57PM 43.8622 -70.2106 224° Southwest 209 241 6,000  Level Boston Center
07:58PM 43.8208 -70.2667 224° Southwest 208 239 6,000  Level Boston Center
07:59PM 43.7775 -70.3225 223° Southwest 208 239 6,000 -60 Level Boston Center
08:01PM 43.6936 -70.4361 222° Southwest 212 244 5,900  Descending Boston Center
08:02PM 43.6461 -70.4964 223° Southwest 214 246 6,000 60 Climbing Boston Center
08:03PM 43.6106 -70.5558 230° Southwest 203 234 6,100  Climbing Boston Center
08:04PM 43.5658 -70.6108 222° Southwest 214 246 6,000  Descending Boston Center
08:05PM 43.5208 -70.6631 220° Southwest 211 243 6,100  Climbing Boston Center
08:07PM 43.4783 -70.7261 227° Southwest 208 239 6,100  Level Boston Center
08:08PM 43.4344 -70.7825 223° Southwest 212 244 6,100  Level Boston Center
08:09PM 43.3914 -70.8356 222° Southwest 210 242 6,100  Level Boston Center
08:10PM 43.3508 -70.8964 227° Southwest 214 246 6,100 -60 Level Boston Center
08:11PM 43.3036 -70.9556 222° Southwest 213 245 6,000  Descending Boston Center
08:12PM 43.2603 -71.0094 222° Southwest 213 245 6,100  Climbing Boston Center
08:13PM 43.1989 -71.0086 179° South 236 272 6,100 -300 Level Boston Center
08:14PM 43.1317 -70.9867 167° South 245 282 5,500 -660 Descending Boston Center
08:16PM 43.0192 -71.0561 204° Southwest 213 245 4,100 -540 Descending Boston Center
08:17PM 42.9714 -71.0928 209° Southwest 200 230 4,000  Descending Boston Center
08:18PM 42.9306 -71.1369 218° Southwest 190 219 4,100 -480 Climbing Boston Center
08:19PM 42.8833 -71.1894 219° Southwest 202 232 3,100 -540 Descending Boston Center
08:20PM 42.8392 -71.2356 217° Southwest 202 232 3,100 -300 Level Boston Center
08:21PM 42.8197 -71.3011 248° West 191 220 2,600 -480 Descending Boston Center
08:22PM 42.8292 -71.3658 281° West 173 199 2,200 -480 Descending Boston Center
08:23PM 42.8567 -71.3894 328° Northwest 109 125 1,700 -600 Descending Boston Center
08:24PM 42.8825 -71.4044 337° Northwest 98 113 1,100 -540 Descending Boston Center
08:25PM 42.9072 -71.4197 336° Northwest 98 113 700 -360 Descending Boston Center
08:26PM 42.9308 -71.4344 335° Northwest 98 113 400 -300 Descending Boston Center
08:28PM 42.9328 -71.4358 334° Northwest  Level Estimated
08:35PM 42.9328 -71.4358 North  Level Estimated
08:36PM 42.9328 -71.4358 North  Level Estimated
08:37PM 42.9328 -71.4358 North  Level Estimated
08:38PM 42.9328 -71.4358 North  Level Estimated
08:39PM 42.9328 -71.4358 North  Level Estimated
08:40PM 42.9328 -71.4358 North  Level Estimated